PWSweather.com
Personal Weather Stations
Station Observations
NIGHT1
EastleighGB

EastleighGB

Lat: 50.966307, Lon: -1.380982

Elevation: 78

Station Type: Davis VP2 with daytime FARS

Latest ConditionsUpdated 1:30:03 PM GMT Thursday, Apr 24, 2014
Currently Today's Max Today's Min Today's Average
Temperature 60.8°F16.0°C 60.8°F16.0°C 46.0°F7.8°C 50.0°F10.0°C
Dew Point 49.0°F9.4°C 52.1°F11.2°C 45.8°F7.7°C 48.4°F9.1°C
Winds 3.0 mph SE4.8 kmh SE 4.0 mph SE6.4 kmh SE - 1.2 mph 1.9 kmh
Wind Gusts 6.0 mph9.7 kmh 9.0 mph14.5 kmh - -
Humidity 65% 100% 64% 95%
Pressure 30.04 in1017.3 mb 30.11 in1019.6 mb 30.04 in1017.3 mb -
Precipitation - 0.10 in2.5 mm - -
Hour Temp Dew Point Humidity Winds Wind Gusts Pressure Precip Precip Rate Daily Precip Total
01:30 PM 60.8°F16.0°C 49.0°F9.4°C 65% 3.0 mph SE4.8 kmh SE 6.0 mph9.7 kmh 30.04 in1017.3 mb 0.00 in0.0 mm 0.00 in/hr0.0 mm/hr 0.10 in2.5 mm
01:25 PM 60.8°F16.0°C 49.4°F9.7°C 66% 3.0 mph SE4.8 kmh SE 7.0 mph11.3 kmh 30.05 in1017.6 mb 0.00 in0.0 mm 0.00 in/hr0.0 mm/hr 0.10 in2.5 mm
01:20 PM 60.3°F15.7°C 49.3°F9.6°C 67% 4.0 mph SE6.4 kmh SE 7.0 mph11.3 kmh 30.05 in1017.6 mb 0.00 in0.0 mm 0.00 in/hr0.0 mm/hr 0.10 in2.5 mm
01:15 PM 59.7°F15.4°C 47.5°F8.6°C 64% 4.0 mph SSE6.4 kmh SSE 9.0 mph14.5 kmh 30.05 in1017.6 mb 0.00 in0.0 mm 0.00 in/hr0.0 mm/hr 0.10 in2.5 mm
01:10 PM 60.1°F15.6°C 49.5°F9.7°C 68% 4.0 mph SSE6.4 kmh SSE 9.0 mph14.5 kmh 30.05 in1017.6 mb 0.00 in0.0 mm 0.00 in/hr0.0 mm/hr 0.10 in2.5 mm
01:05 PM 59.7°F15.4°C 49.1°F9.5°C 68% 3.0 mph SSE4.8 kmh SSE 9.0 mph14.5 kmh 30.05 in1017.6 mb 0.00 in0.0 mm 0.00 in/hr0.0 mm/hr 0.10 in2.5 mm
01:00 PM 59.7°F15.4°C 48.7°F9.3°C 67% 2.0 mph SE3.2 kmh SE 9.0 mph14.5 kmh 30.05 in1017.6 mb 0.00 in0.0 mm 0.00 in/hr0.0 mm/hr 0.10 in2.5 mm
12:55 PM 59.7°F15.4°C 48.3°F9.1°C 66% 2.0 mph SE3.2 kmh SE 6.0 mph9.7 kmh 30.05 in1017.6 mb 0.00 in0.0 mm 0.00 in/hr0.0 mm/hr 0.10 in2.5 mm
12:50 PM 59.2°F15.1°C 49.0°F9.4°C 69% 2.0 mph S3.2 kmh S 6.0 mph9.7 kmh 30.06 in1017.9 mb 0.00 in0.0 mm 0.00 in/hr0.0 mm/hr 0.10 in2.5 mm
12:45 PM 58.5°F14.7°C 49.8°F9.9°C 73% 2.0 mph SW3.2 kmh SW 3.0 mph4.8 kmh 30.06 in1017.9 mb 0.00 in0.0 mm 0.00 in/hr0.0 mm/hr 0.10 in2.5 mm
12:40 PM 57.9°F14.4°C 48.9°F9.4°C 72% 3.0 mph SSE4.8 kmh SSE 7.0 mph11.3 kmh 30.06 in1017.9 mb 0.00 in0.0 mm 0.00 in/hr0.0 mm/hr 0.10 in2.5 mm
12:35 PM 58.1°F14.5°C 49.1°F9.5°C 72% 3.0 mph SE4.8 kmh SE 7.0 mph11.3 kmh 30.06 in1017.9 mb 0.00 in0.0 mm 0.00 in/hr0.0 mm/hr 0.10 in2.5 mm
12:30 PM 57.7°F14.3°C 48.8°F9.3°C 72% 2.0 mph SE3.2 kmh SE 7.0 mph11.3 kmh 30.06 in1017.9 mb 0.00 in0.0 mm 0.00 in/hr0.0 mm/hr 0.10 in2.5 mm
12:25 PM 57.9°F14.4°C 49.7°F9.8°C 74% 2.0 mph SE3.2 kmh SE 7.0 mph11.3 kmh 30.06 in1017.9 mb 0.00 in0.0 mm 0.00 in/hr0.0 mm/hr 0.10 in2.5 mm
12:20 PM 57.4°F14.1°C 49.9°F9.9°C 76% 2.0 mph ESE3.2 kmh ESE 6.0 mph9.7 kmh 30.07 in1018.3 mb 0.00 in0.0 mm 0.00 in/hr0.0 mm/hr 0.10 in2.5 mm
12:15 PM 57.4°F14.1°C 49.2°F9.6°C 74% 2.0 mph E3.2 kmh E 6.0 mph9.7 kmh 30.07 in1018.3 mb 0.00 in0.0 mm 0.00 in/hr0.0 mm/hr 0.10 in2.5 mm
12:10 PM 56.8°F13.8°C 50.1°F10.1°C 78% 2.0 mph ENE3.2 kmh ENE 7.0 mph11.3 kmh 30.07 in1018.3 mb 0.00 in0.0 mm 0.00 in/hr0.0 mm/hr 0.10 in2.5 mm
12:05 PM 57.0°F13.9°C 49.5°F9.7°C 76% 3.0 mph E4.8 kmh E 7.0 mph11.3 kmh 30.07 in1018.3 mb 0.00 in0.0 mm 0.00 in/hr0.0 mm/hr 0.10 in2.5 mm
12:00 PM 57.4°F14.1°C 51.3°F10.7°C 80% 3.0 mph E4.8 kmh E 7.0 mph11.3 kmh 30.07 in1018.3 mb 0.00 in0.0 mm 0.00 in/hr0.0 mm/hr 0.10 in2.5 mm
11:55 AM 56.5°F13.6°C 50.4°F10.2°C 80% 2.0 mph E3.2 kmh E 8.0 mph12.9 kmh 30.07 in1018.3 mb 0.00 in0.0 mm 0.00 in/hr0.0 mm/hr 0.10 in2.5 mm
11:50 AM 56.5°F13.6°C 50.4°F10.2°C 80% 2.0 mph E3.2 kmh E 8.0 mph12.9 kmh 30.08 in1018.6 mb 0.00 in0.0 mm 0.00 in/hr0.0 mm/hr 0.10 in2.5 mm
11:45 AM 57.0°F13.9°C 51.9°F11.1°C 83% 2.0 mph E3.2 kmh E 6.0 mph9.7 kmh 30.07 in1018.3 mb 0.00 in0.0 mm 0.00 in/hr0.0 mm/hr 0.10 in2.5 mm
11:40 AM 56.7°F13.7°C 51.9°F11.1°C 84% 2.0 mph SE3.2 kmh SE 7.0 mph11.3 kmh 30.08 in1018.6 mb 0.00 in0.0 mm 0.00 in/hr0.0 mm/hr 0.10 in2.5 mm
11:35 AM 56.7°F13.7°C 51.9°F11.1°C 84% 3.0 mph SE4.8 kmh SE 7.0 mph11.3 kmh 30.08 in1018.6 mb 0.00 in0.0 mm 0.00 in/hr0.0 mm/hr 0.10 in2.5 mm
11:30 AM 55.2°F12.9°C 50.1°F10.1°C 83% 2.0 mph ESE3.2 kmh ESE 6.0 mph9.7 kmh 30.08 in1018.6 mb 0.00 in0.0 mm 0.00 in/hr0.0 mm/hr 0.10 in2.5 mm
11:25 AM 55.6°F13.1°C 50.5°F10.3°C 83% 2.0 mph ESE3.2 kmh ESE 6.0 mph9.7 kmh 30.08 in1018.6 mb 0.00 in0.0 mm 0.00 in/hr0.0 mm/hr 0.10 in2.5 mm
11:20 AM 55.8°F13.2°C 51.3°F10.7°C 85% 2.0 mph SE3.2 kmh SE 5.0 mph8.0 kmh 30.08 in1018.6 mb 0.00 in0.0 mm 0.00 in/hr0.0 mm/hr 0.10 in2.5 mm
11:15 AM 55.6°F13.1°C 52.1°F11.2°C 88% 2.0 mph SE3.2 kmh SE 5.0 mph8.0 kmh 30.08 in1018.6 mb 0.00 in0.0 mm 0.00 in/hr0.0 mm/hr 0.10 in2.5 mm
11:10 AM 54.9°F12.7°C 51.7°F10.9°C 89% 2.0 mph ESE3.2 kmh ESE 5.0 mph8.0 kmh 30.08 in1018.6 mb 0.00 in0.0 mm 0.00 in/hr0.0 mm/hr 0.10 in2.5 mm
11:05 AM 54.3°F12.4°C 51.1°F10.6°C 89% 1.0 mph E1.6 kmh E 5.0 mph8.0 kmh 30.08 in1018.6 mb 0.00 in0.0 mm 0.00 in/hr0.0 mm/hr 0.10 in2.5 mm
11:00 AM 54.1°F12.3°C 51.9°F11.1°C 92% 2.0 mph ESE3.2 kmh ESE 4.0 mph6.4 kmh 30.08 in1018.6 mb 0.00 in0.0 mm 0.00 in/hr0.0 mm/hr 0.10 in2.5 mm
10:55 AM 53.8°F12.1°C 51.5°F10.8°C 92% 2.0 mph ESE3.2 kmh ESE 3.0 mph4.8 kmh 30.09 in1019.0 mb 0.00 in0.0 mm 0.00 in/hr0.0 mm/hr 0.10 in2.5 mm
10:50 AM 53.2°F11.8°C 51.6°F10.9°C 94% 2.0 mph SE3.2 kmh SE 4.0 mph6.4 kmh 30.09 in1019.0 mb 0.00 in0.0 mm 0.00 in/hr0.0 mm/hr 0.10 in2.5 mm
10:45 AM 52.5°F11.4°C 51.1°F10.6°C 95% 2.0 mph SE3.2 kmh SE 4.0 mph6.4 kmh 30.09 in1019.0 mb 0.00 in0.0 mm 0.00 in/hr0.0 mm/hr 0.10 in2.5 mm
10:40 AM 52.3°F11.3°C 51.2°F10.7°C 96% 2.0 mph SE3.2 kmh SE 4.0 mph6.4 kmh 30.09 in1019.0 mb 0.00 in0.0 mm 0.00 in/hr0.0 mm/hr 0.10 in2.5 mm
10:35 AM 52.2°F11.2°C 51.1°F10.6°C 96% 1.0 mph SE1.6 kmh SE 3.0 mph4.8 kmh 30.09 in1019.0 mb 0.00 in0.0 mm 0.00 in/hr0.0 mm/hr 0.10 in2.5 mm
10:30 AM 51.4°F10.8°C 50.3°F10.2°C 96% 2.0 mph E3.2 kmh E 3.0 mph4.8 kmh 30.09 in1019.0 mb 0.00 in0.0 mm 0.00 in/hr0.0 mm/hr 0.10 in2.5 mm
10:25 AM 51.8°F11.0°C 51.0°F10.6°C 97% 3.0 mph E4.8 kmh E 4.0 mph6.4 kmh 30.09 in1019.0 mb 0.00 in0.0 mm 0.00 in/hr0.0 mm/hr 0.10 in2.5 mm
10:20 AM 52.0°F11.1°C 51.4°F10.8°C 98% 3.0 mph E4.8 kmh E 6.0 mph9.7 kmh 30.09 in1019.0 mb 0.00 in0.0 mm 0.00 in/hr0.0 mm/hr 0.10 in2.5 mm
10:15 AM 51.6°F10.9°C 50.8°F10.4°C 97% 3.0 mph E4.8 kmh E 6.0 mph9.7 kmh 30.09 in1019.0 mb 0.00 in0.0 mm 0.00 in/hr0.0 mm/hr 0.10 in2.5 mm
10:10 AM 52.2°F11.2°C 51.6°F10.9°C 98% 2.0 mph E3.2 kmh E 6.0 mph9.7 kmh 30.09 in1019.0 mb 0.00 in0.0 mm 0.00 in/hr0.0 mm/hr 0.10 in2.5 mm
10:05 AM 52.2°F11.2°C 51.6°F10.9°C 98% 2.0 mph E3.2 kmh E 4.0 mph6.4 kmh 30.09 in1019.0 mb 0.00 in0.0 mm 0.00 in/hr0.0 mm/hr 0.10 in2.5 mm
10:00 AM 51.3°F10.7°C 50.7°F10.4°C 98% 2.0 mph ENE3.2 kmh ENE 4.0 mph6.4 kmh 30.09 in1019.0 mb 0.00 in0.0 mm 0.00 in/hr0.0 mm/hr 0.10 in2.5 mm
09:55 AM 51.6°F10.9°C 51.3°F10.7°C 99% 2.0 mph E3.2 kmh E 4.0 mph6.4 kmh 30.09 in1019.0 mb 0.00 in0.0 mm 0.00 in/hr0.0 mm/hr 0.10 in2.5 mm
09:50 AM 51.1°F10.6°C 50.8°F10.4°C 99% 2.0 mph ESE3.2 kmh ESE 4.0 mph6.4 kmh 30.10 in1019.3 mb 0.00 in0.0 mm 0.00 in/hr0.0 mm/hr 0.10 in2.5 mm
09:45 AM 50.7°F10.4°C 50.4°F10.2°C 99% 1.0 mph ESE1.6 kmh ESE 4.0 mph6.4 kmh 30.10 in1019.3 mb 0.00 in0.0 mm 0.00 in/hr0.0 mm/hr 0.10 in2.5 mm
09:40 AM 50.0°F10.0°C 49.7°F9.8°C 99% 1.0 mph E1.6 kmh E 4.0 mph6.4 kmh 30.09 in1019.0 mb 0.00 in0.0 mm 0.00 in/hr0.0 mm/hr 0.10 in2.5 mm
09:35 AM 49.8°F9.9°C 49.6°F9.8°C 99% 1.0 mph N1.6 kmh N 3.0 mph4.8 kmh 30.10 in1019.3 mb 0.00 in0.0 mm 0.00 in/hr0.0 mm/hr 0.10 in2.5 mm
09:30 AM 50.0°F10.0°C 49.7°F9.8°C 99% 1.0 mph N1.6 kmh N 3.0 mph4.8 kmh 30.10 in1019.3 mb 0.00 in0.0 mm 0.00 in/hr0.0 mm/hr 0.10 in2.5 mm
09:25 AM 49.6°F9.8°C 49.4°F9.7°C 99% 1.0 mph NE1.6 kmh NE 3.0 mph4.8 kmh 30.10 in1019.3 mb 0.00 in0.0 mm 0.00 in/hr0.0 mm/hr 0.10 in2.5 mm
09:20 AM 49.3°F9.6°C 49.0°F9.4°C 99% 1.0 mph ENE1.6 kmh ENE 3.0 mph4.8 kmh 30.10 in1019.3 mb 0.00 in0.0 mm 0.00 in/hr0.0 mm/hr 0.10 in2.5 mm
09:15 AM 49.1°F9.5°C 48.8°F9.3°C 99% 1.0 mph NE1.6 kmh NE 3.0 mph4.8 kmh 30.10 in1019.3 mb 0.00 in0.0 mm 0.00 in/hr0.0 mm/hr 0.10 in2.5 mm
09:10 AM 49.3°F9.6°C 49.3°F9.6°C 100% 1.0 mph NNE1.6 kmh NNE 3.0 mph4.8 kmh 30.10 in1019.3 mb 0.00 in0.0 mm 0.00 in/hr0.0 mm/hr 0.10 in2.5 mm
09:05 AM 49.5°F9.7°C 49.5°F9.7°C 100% 1.0 mph NNE1.6 kmh NNE 3.0 mph4.8 kmh 30.10 in1019.3 mb 0.00 in0.0 mm 0.00 in/hr0.0 mm/hr 0.10 in2.5 mm
09:00 AM 49.5°F9.7°C 49.5°F9.7°C 100% 1.0 mph N1.6 kmh N 2.0 mph3.2 kmh 30.10 in1019.3 mb 0.00 in0.0 mm 0.00 in/hr0.0 mm/hr 0.10 in2.5 mm
08:55 AM 49.1°F9.5°C 49.1°F9.5°C 100% 1.0 mph N1.6 kmh N 2.0 mph3.2 kmh 30.10 in1019.3 mb 0.00 in0.0 mm 0.00 in/hr0.0 mm/hr 0.10 in2.5 mm
08:50 AM 48.9°F9.4°C 48.9°F9.4°C 100% 1.0 mph N1.6 kmh N 2.0 mph3.2 kmh 30.10 in1019.3 mb 0.00 in0.0 mm 0.00 in/hr0.0 mm/hr 0.10 in2.5 mm
08:45 AM 48.9°F9.4°C 48.9°F9.4°C 100% Calm Calm 2.0 mph3.2 kmh 30.10 in1019.3 mb 0.00 in0.0 mm 0.00 in/hr0.0 mm/hr 0.10 in2.5 mm
08:40 AM 48.9°F9.4°C 48.9°F9.4°C 100% 1.0 mph ENE1.6 kmh ENE 2.0 mph3.2 kmh 30.11 in1019.6 mb 0.00 in0.0 mm 0.00 in/hr0.0 mm/hr 0.10 in2.5 mm
08:35 AM 48.7°F9.3°C 48.7°F9.3°C 100% 1.0 mph E1.6 kmh E 3.0 mph4.8 kmh 30.11 in1019.6 mb 0.00 in0.0 mm 0.00 in/hr0.0 mm/hr 0.10 in2.5 mm
08:30 AM 48.7°F9.3°C 48.7°F9.3°C 100% 1.0 mph E1.6 kmh E 3.0 mph4.8 kmh 30.11 in1019.6 mb 0.00 in0.0 mm 0.00 in/hr0.0 mm/hr 0.10 in2.5 mm
08:25 AM 48.6°F9.2°C 48.6°F9.2°C 100% 1.0 mph E1.6 kmh E 3.0 mph4.8 kmh 30.10 in1019.3 mb 0.00 in0.0 mm 0.00 in/hr0.0 mm/hr 0.10 in2.5 mm
08:20 AM 48.9°F9.4°C 48.9°F9.4°C 100% 1.0 mph E1.6 kmh E 3.0 mph4.8 kmh 30.11 in1019.6 mb 0.00 in0.0 mm 0.00 in/hr0.0 mm/hr 0.10 in2.5 mm
08:15 AM 48.6°F9.2°C 48.6°F9.2°C 100% 1.0 mph NE1.6 kmh NE 2.0 mph3.2 kmh 30.11 in1019.6 mb 0.00 in0.0 mm 0.00 in/hr0.0 mm/hr 0.10 in2.5 mm
08:10 AM 48.4°F9.1°C 48.4°F9.1°C 100% Calm Calm 2.0 mph3.2 kmh 30.10 in1019.3 mb 0.00 in0.0 mm 0.00 in/hr0.0 mm/hr 0.10 in2.5 mm
08:05 AM 48.9°F9.4°C 48.9°F9.4°C 100% 1.0 mph NNW1.6 kmh NNW 2.0 mph3.2 kmh 30.10 in1019.3 mb 0.00 in0.0 mm 0.00 in/hr0.0 mm/hr 0.10 in2.5 mm
08:00 AM 48.6°F9.2°C 48.6°F9.2°C 100% 1.0 mph NNW1.6 kmh NNW 4.0 mph6.4 kmh 30.10 in1019.3 mb 0.00 in0.0 mm 0.00 in/hr0.0 mm/hr 0.10 in2.5 mm
07:55 AM 48.0°F8.9°C 48.0°F8.9°C 100% 1.0 mph N1.6 kmh N 4.0 mph6.4 kmh 30.10 in1019.3 mb 0.00 in0.0 mm 0.00 in/hr0.0 mm/hr 0.10 in2.5 mm
07:50 AM 48.2°F9.0°C 48.2°F9.0°C 100% 1.0 mph NNW1.6 kmh NNW 4.0 mph6.4 kmh 30.10 in1019.3 mb 0.00 in0.0 mm 0.00 in/hr0.0 mm/hr 0.10 in2.5 mm
07:45 AM 48.4°F9.1°C 48.4°F9.1°C 100% 1.0 mph NW1.6 kmh NW 2.0 mph3.2 kmh 30.10 in1019.3 mb 0.00 in0.0 mm 0.00 in/hr0.0 mm/hr 0.10 in2.5 mm
07:40 AM 48.6°F9.2°C 48.6°F9.2°C 100% 1.0 mph NW1.6 kmh NW 3.0 mph4.8 kmh 30.10 in1019.3 mb 0.00 in0.0 mm 0.00 in/hr0.0 mm/hr 0.10 in2.5 mm
07:35 AM 48.0°F8.9°C 48.0°F8.9°C 100% 1.0 mph N1.6 kmh N 3.0 mph4.8 kmh 30.10 in1019.3 mb 0.00 in0.0 mm 0.00 in/hr0.0 mm/hr 0.10 in2.5 mm
07:30 AM 48.0°F8.9°C 48.0°F8.9°C 100% 1.0 mph NNW1.6 kmh NNW 4.0 mph6.4 kmh 30.10 in1019.3 mb 0.00 in0.0 mm 0.00 in/hr0.0 mm/hr 0.10 in2.5 mm
07:25 AM 48.0°F8.9°C 48.0°F8.9°C 100% 1.0 mph NW1.6 kmh NW 4.0 mph6.4 kmh 30.10 in1019.3 mb 0.00 in0.0 mm 0.00 in/hr0.0 mm/hr 0.10 in2.5 mm
07:20 AM 47.7°F8.7°C 47.7°F8.7°C 100% 1.0 mph W1.6 kmh W 3.0 mph4.8 kmh 30.10 in1019.3 mb 0.00 in0.0 mm 0.00 in/hr0.0 mm/hr 0.10 in2.5 mm
07:15 AM 47.7°F8.7°C 47.7°F8.7°C 100% 1.0 mph NW1.6 kmh NW 3.0 mph4.8 kmh 30.09 in1019.0 mb 0.00 in0.0 mm 0.00 in/hr0.0 mm/hr 0.10 in2.5 mm
07:10 AM 47.8°F8.8°C 47.8°F8.8°C 100% 1.0 mph NW1.6 kmh NW 3.0 mph4.8 kmh 30.09 in1019.0 mb 0.00 in0.0 mm 0.00 in/hr0.0 mm/hr 0.10 in2.5 mm
07:05 AM 48.0°F8.9°C 48.0°F8.9°C 100% 1.0 mph NW1.6 kmh NW 3.0 mph4.8 kmh 30.09 in1019.0 mb 0.00 in0.0 mm 0.00 in/hr0.0 mm/hr 0.10 in2.5 mm
07:00 AM 48.0°F8.9°C 48.0°F8.9°C 100% 1.0 mph N1.6 kmh N 2.0 mph3.2 kmh 30.09 in1019.0 mb 0.00 in0.0 mm 0.00 in/hr0.0 mm/hr 0.10 in2.5 mm
06:55 AM 47.8°F8.8°C 47.8°F8.8°C 100% 1.0 mph N1.6 kmh N 3.0 mph4.8 kmh 30.09 in1019.0 mb 0.00 in0.0 mm 0.00 in/hr0.0 mm/hr 0.10 in2.5 mm
06:50 AM 47.7°F8.7°C 47.7°F8.7°C 100% 1.0 mph N1.6 kmh N 3.0 mph4.8 kmh 30.09 in1019.0 mb 0.00 in0.0 mm 0.00 in/hr0.0 mm/hr 0.10 in2.5 mm
06:45 AM 47.8°F8.8°C 47.8°F8.8°C 100% 1.0 mph N1.6 kmh N 3.0 mph4.8 kmh 30.09 in1019.0 mb 0.00 in0.0 mm 0.00 in/hr0.0 mm/hr 0.10 in2.5 mm
06:40 AM 47.7°F8.7°C 47.7°F8.7°C 100% 1.0 mph N1.6 kmh N 3.0 mph4.8 kmh 30.09 in1019.0 mb 0.00 in0.0 mm 0.00 in/hr0.0 mm/hr 0.10 in2.5 mm
06:35 AM 47.8°F8.8°C 47.8°F8.8°C 100% 1.0 mph N1.6 kmh N 3.0 mph4.8 kmh 30.09 in1019.0 mb 0.00 in0.0 mm 0.00 in/hr0.0 mm/hr 0.10 in2.5 mm
06:30 AM 47.7°F8.7°C 47.7°F8.7°C 100% 1.0 mph N1.6 kmh N 3.0 mph4.8 kmh 30.09 in1019.0 mb 0.00 in0.0 mm 0.00 in/hr0.0 mm/hr 0.10 in2.5 mm
06:25 AM 47.5°F8.6°C 47.5°F8.6°C 100% 1.0 mph N1.6 kmh N 4.0 mph6.4 kmh 30.09 in1019.0 mb 0.00 in0.0 mm 0.00 in/hr0.0 mm/hr 0.10 in2.5 mm
06:20 AM 47.3°F8.5°C 47.3°F8.5°C 100% 1.0 mph N1.6 kmh N 4.0 mph6.4 kmh 30.09 in1019.0 mb 0.00 in0.0 mm 0.00 in/hr0.0 mm/hr 0.10 in2.5 mm
06:15 AM 47.3°F8.5°C 47.3°F8.5°C 100% 1.0 mph NNW1.6 kmh NNW 3.0 mph4.8 kmh 30.09 in1019.0 mb 0.00 in0.0 mm 0.00 in/hr0.0 mm/hr 0.10 in2.5 mm
06:10 AM 47.1°F8.4°C 47.1°F8.4°C 100% 1.0 mph NNW1.6 kmh NNW 3.0 mph4.8 kmh 30.09 in1019.0 mb 0.00 in0.0 mm 0.00 in/hr0.0 mm/hr 0.10 in2.5 mm
06:05 AM 46.9°F8.3°C 46.9°F8.3°C 100% 1.0 mph NNW1.6 kmh NNW 3.0 mph4.8 kmh 30.09 in1019.0 mb 0.00 in0.0 mm 0.00 in/hr0.0 mm/hr 0.10 in2.5 mm
06:00 AM 46.9°F8.3°C 46.9°F8.3°C 100% 2.0 mph NW3.2 kmh NW 3.0 mph4.8 kmh 30.09 in1019.0 mb 0.00 in0.0 mm 0.00 in/hr0.0 mm/hr 0.10 in2.5 mm
05:55 AM 46.9°F8.3°C 46.9°F8.3°C 100% 2.0 mph WNW3.2 kmh WNW 3.0 mph4.8 kmh 30.09 in1019.0 mb 0.00 in0.0 mm 0.00 in/hr0.0 mm/hr 0.10 in2.5 mm
05:50 AM 46.9°F8.3°C 46.9°F8.3°C 100% 2.0 mph NW3.2 kmh NW 3.0 mph4.8 kmh 30.09 in1019.0 mb 0.00 in0.0 mm 0.00 in/hr0.0 mm/hr 0.10 in2.5 mm
05:45 AM 46.8°F8.2°C 46.8°F8.2°C 100% 2.0 mph NW3.2 kmh NW 3.0 mph4.8 kmh 30.09 in1019.0 mb 0.00 in0.0 mm 0.00 in/hr0.0 mm/hr 0.10 in2.5 mm
05:40 AM 46.8°F8.2°C 46.8°F8.2°C 100% 2.0 mph WNW3.2 kmh WNW 3.0 mph4.8 kmh 30.09 in1019.0 mb 0.00 in0.0 mm 0.00 in/hr0.0 mm/hr 0.10 in2.5 mm
05:35 AM 46.8°F8.2°C 46.8°F8.2°C 100% 2.0 mph WNW3.2 kmh WNW 4.0 mph6.4 kmh 30.09 in1019.0 mb 0.00 in0.0 mm 0.00 in/hr0.0 mm/hr 0.10 in2.5 mm
05:30 AM 46.8°F8.2°C 46.8°F8.2°C 100% 1.0 mph WNW1.6 kmh WNW 4.0 mph6.4 kmh 30.09 in1019.0 mb 0.00 in0.0 mm 0.00 in/hr0.0 mm/hr 0.10 in2.5 mm
05:25 AM 46.6°F8.1°C 46.6°F8.1°C 100% 1.0 mph W1.6 kmh W 3.0 mph4.8 kmh 30.09 in1019.0 mb 0.00 in0.0 mm 0.00 in/hr0.0 mm/hr 0.10 in2.5 mm
05:20 AM 46.6°F8.1°C 46.6°F8.1°C 100% 1.0 mph W1.6 kmh W 3.0 mph4.8 kmh 30.09 in1019.0 mb 0.00 in0.0 mm 0.00 in/hr0.0 mm/hr 0.10 in2.5 mm
05:15 AM 46.6°F8.1°C 46.6°F8.1°C 100% 1.0 mph WSW1.6 kmh WSW 2.0 mph3.2 kmh 30.09 in1019.0 mb 0.00 in0.0 mm 0.00 in/hr0.0 mm/hr 0.10 in2.5 mm
05:10 AM 46.4°F8.0°C 46.4°F8.0°C 100% Calm Calm 2.0 mph3.2 kmh 30.09 in1019.0 mb 0.00 in0.0 mm 0.00 in/hr0.0 mm/hr 0.10 in2.5 mm
05:05 AM 46.2°F7.9°C 46.2°F7.9°C 100% Calm Calm 3.0 mph4.8 kmh 30.09 in1019.0 mb 0.00 in0.0 mm 0.00 in/hr0.0 mm/hr 0.10 in2.5 mm
05:00 AM 46.0°F7.8°C 46.0°F7.8°C 100% Calm Calm 3.0 mph4.8 kmh 30.09 in1019.0 mb 0.00 in0.0 mm 0.00 in/hr0.0 mm/hr 0.10 in2.5 mm
04:55 AM 46.2°F7.9°C 46.2°F7.9°C 100% Calm Calm 2.0 mph3.2 kmh 30.09 in1019.0 mb 0.00 in0.0 mm 0.00 in/hr0.0 mm/hr 0.10 in2.5 mm
04:50 AM 46.2°F7.9°C 46.2°F7.9°C 100% Calm Calm 2.0 mph3.2 kmh 30.08 in1018.6 mb 0.00 in0.0 mm 0.00 in/hr0.0 mm/hr 0.10 in2.5 mm
04:45 AM 46.2°F7.9°C 46.2°F7.9°C 100% Calm Calm 2.0 mph3.2 kmh 30.08 in1018.6 mb 0.00 in0.0 mm 0.00 in/hr0.0 mm/hr 0.10 in2.5 mm
04:40 AM 46.2°F7.9°C 46.2°F7.9°C 100% 1.0 mph W1.6 kmh W 2.0 mph3.2 kmh 30.08 in1018.6 mb 0.00 in0.0 mm 0.00 in/hr0.0 mm/hr 0.10 in2.5 mm
04:35 AM 46.0°F7.8°C 46.0°F7.8°C 100% 1.0 mph W1.6 kmh W 4.0 mph6.4 kmh 30.08 in1018.6 mb 0.00 in0.0 mm 0.00 in/hr0.0 mm/hr 0.10 in2.5 mm
04:30 AM 46.0°F7.8°C 45.8°F7.7°C 99% 1.0 mph WNW1.6 kmh WNW 4.0 mph6.4 kmh 30.08 in1018.6 mb 0.00 in0.0 mm 0.00 in/hr0.0 mm/hr 0.10 in2.5 mm
04:25 AM 46.6°F8.1°C 46.6°F8.1°C 100% 1.0 mph NW1.6 kmh NW 3.0 mph4.8 kmh 30.08 in1018.6 mb 0.00 in0.0 mm 0.00 in/hr0.0 mm/hr 0.10 in2.5 mm
04:20 AM 46.4°F8.0°C 46.4°F8.0°C 100% 1.0 mph NNW1.6 kmh NNW 2.0 mph3.2 kmh 30.08 in1018.6 mb 0.01 in0.3 mm 0.00 in/hr0.0 mm/hr 0.10 in2.5 mm
04:15 AM 46.6°F8.1°C 46.6°F8.1°C 100% 1.0 mph NNW1.6 kmh NNW 2.0 mph3.2 kmh 30.08 in1018.6 mb 0.01 in0.3 mm 0.00 in/hr0.0 mm/hr 0.10 in2.5 mm
04:10 AM 46.6°F8.1°C 46.6°F8.1°C 100% 1.0 mph NW1.6 kmh NW 3.0 mph4.8 kmh 30.08 in1018.6 mb 0.01 in0.3 mm 0.00 in/hr0.0 mm/hr 0.10 in2.5 mm
04:05 AM 46.6°F8.1°C 46.6°F8.1°C 100% 1.0 mph NW1.6 kmh NW 3.0 mph4.8 kmh 30.08 in1018.6 mb 0.01 in0.3 mm 0.00 in/hr0.0 mm/hr 0.10 in2.5 mm
04:00 AM 46.6°F8.1°C 46.3°F7.9°C 99% 1.0 mph NW1.6 kmh NW 3.0 mph4.8 kmh 30.08 in1018.6 mb 0.01 in0.3 mm 0.00 in/hr0.0 mm/hr 0.10 in2.5 mm
03:55 AM 46.8°F8.2°C 46.5°F8.1°C 99% 1.0 mph NW1.6 kmh NW 3.0 mph4.8 kmh 30.08 in1018.6 mb 0.01 in0.3 mm 0.00 in/hr0.0 mm/hr 0.10 in2.5 mm
03:50 AM 46.8°F8.2°C 46.5°F8.1°C 99% 1.0 mph WNW1.6 kmh WNW 2.0 mph3.2 kmh 30.08 in1018.6 mb 0.01 in0.3 mm 0.00 in/hr0.0 mm/hr 0.10 in2.5 mm
03:45 AM 46.8°F8.2°C 46.5°F8.1°C 99% 1.0 mph WNW1.6 kmh WNW 2.0 mph3.2 kmh 30.07 in1018.3 mb 0.01 in0.3 mm 0.00 in/hr0.0 mm/hr 0.10 in2.5 mm
03:40 AM 46.8°F8.2°C 46.5°F8.1°C 99% 1.0 mph WNW1.6 kmh WNW 3.0 mph4.8 kmh 30.07 in1018.3 mb 0.01 in0.3 mm 0.00 in/hr0.0 mm/hr 0.10 in2.5 mm
03:35 AM 46.8°F8.2°C 46.5°F8.1°C 99% 1.0 mph WNW1.6 kmh WNW 4.0 mph6.4 kmh 30.08 in1018.6 mb 0.01 in0.3 mm 0.00 in/hr0.0 mm/hr 0.10 in2.5 mm
03:30 AM 47.1°F8.4°C 46.9°F8.3°C 99% 1.0 mph NW1.6 kmh NW 4.0 mph6.4 kmh 30.08 in1018.6 mb 0.01 in0.3 mm 0.00 in/hr0.0 mm/hr 0.10 in2.5 mm
03:25 AM 47.1°F8.4°C 46.9°F8.3°C 99% 1.0 mph NNW1.6 kmh NNW 2.0 mph3.2 kmh 30.08 in1018.6 mb 0.01 in0.3 mm 0.12 in/hr3.0 mm/hr 0.10 in2.5 mm
03:20 AM 46.9°F8.3°C 46.7°F8.2°C 99% 1.0 mph NW1.6 kmh NW 3.0 mph4.8 kmh 30.08 in1018.6 mb 0.00 in0.0 mm 0.00 in/hr0.0 mm/hr 0.09 in2.3 mm
03:15 AM 46.9°F8.3°C 46.7°F8.2°C 99% 1.0 mph NW1.6 kmh NW 3.0 mph4.8 kmh 30.08 in1018.6 mb 0.00 in0.0 mm 0.00 in/hr0.0 mm/hr 0.09 in2.3 mm
03:10 AM 47.5°F8.6°C 47.2°F8.4°C 99% 1.0 mph NW1.6 kmh NW 3.0 mph4.8 kmh 30.08 in1018.6 mb 0.00 in0.0 mm 0.00 in/hr0.0 mm/hr 0.09 in2.3 mm
03:05 AM 47.5°F8.6°C 47.2°F8.4°C 99% 1.0 mph NW1.6 kmh NW 2.0 mph3.2 kmh 30.08 in1018.6 mb 0.00 in0.0 mm 0.00 in/hr0.0 mm/hr 0.09 in2.3 mm
03:00 AM 47.7°F8.7°C 47.4°F8.6°C 99% 1.0 mph NW1.6 kmh NW 3.0 mph4.8 kmh 30.08 in1018.6 mb 0.00 in0.0 mm 0.00 in/hr0.0 mm/hr 0.09 in2.3 mm
02:55 AM 47.7°F8.7°C 47.4°F8.6°C 99% 2.0 mph NW3.2 kmh NW 3.0 mph4.8 kmh 30.08 in1018.6 mb 0.00 in0.0 mm 0.00 in/hr0.0 mm/hr 0.09 in2.3 mm
02:50 AM 47.7°F8.7°C 47.4°F8.6°C 99% 2.0 mph NW3.2 kmh NW 4.0 mph6.4 kmh 30.08 in1018.6 mb 0.00 in0.0 mm 0.00 in/hr0.0 mm/hr 0.09 in2.3 mm
02:45 AM 47.7°F8.7°C 47.4°F8.6°C 99% 1.0 mph NW1.6 kmh NW 4.0 mph6.4 kmh 30.08 in1018.6 mb 0.00 in0.0 mm 0.00 in/hr0.0 mm/hr 0.09 in2.3 mm
02:40 AM 47.7°F8.7°C 47.4°F8.6°C 99% 1.0 mph W1.6 kmh W 3.0 mph4.8 kmh 30.08 in1018.6 mb 0.00 in0.0 mm 0.00 in/hr0.0 mm/hr 0.09 in2.3 mm
02:35 AM 47.3°F8.5°C 47.0°F8.3°C 99% 1.0 mph W1.6 kmh W 2.0 mph3.2 kmh 30.08 in1018.6 mb 0.00 in0.0 mm 0.00 in/hr0.0 mm/hr 0.09 in2.3 mm
02:30 AM 47.1°F8.4°C 46.9°F8.3°C 99% Calm Calm 2.0 mph3.2 kmh 30.08 in1018.6 mb 0.00 in0.0 mm 0.00 in/hr0.0 mm/hr 0.09 in2.3 mm
02:25 AM 46.8°F8.2°C 46.5°F8.1°C 99% Calm Calm 2.0 mph3.2 kmh 30.07 in1018.3 mb 0.00 in0.0 mm 0.00 in/hr0.0 mm/hr 0.09 in2.3 mm
02:20 AM 46.6°F8.1°C 46.3°F7.9°C 99% Calm Calm 1.0 mph1.6 kmh 30.07 in1018.3 mb 0.00 in0.0 mm 0.00 in/hr0.0 mm/hr 0.09 in2.3 mm
02:15 AM 46.9°F8.3°C 46.7°F8.2°C 99% 1.0 mph W1.6 kmh W 2.0 mph3.2 kmh 30.07 in1018.3 mb 0.00 in0.0 mm 0.00 in/hr0.0 mm/hr 0.09 in2.3 mm
02:10 AM 46.8°F8.2°C 46.5°F8.1°C 99% 1.0 mph WNW1.6 kmh WNW 2.0 mph3.2 kmh 30.07 in1018.3 mb 0.00 in0.0 mm 0.00 in/hr0.0 mm/hr 0.09 in2.3 mm
02:05 AM 46.8°F8.2°C 46.5°F8.1°C 99% Calm Calm 2.0 mph3.2 kmh 30.07 in1018.3 mb 0.00 in0.0 mm 0.00 in/hr0.0 mm/hr 0.09 in2.3 mm
02:00 AM 46.6°F8.1°C 46.3°F7.9°C 99% Calm Calm 1.0 mph1.6 kmh 30.07 in1018.3 mb 0.00 in0.0 mm 0.00 in/hr0.0 mm/hr 0.09 in2.3 mm
01:55 AM 46.9°F8.3°C 46.7°F8.2°C 99% Calm Calm 1.0 mph1.6 kmh 30.07 in1018.3 mb 0.00 in0.0 mm 0.00 in/hr0.0 mm/hr 0.09 in2.3 mm
01:50 AM 46.9°F8.3°C 46.7°F8.2°C 99% Calm Calm 1.0 mph1.6 kmh 30.07 in1018.3 mb 0.00 in0.0 mm 0.00 in/hr0.0 mm/hr 0.09 in2.3 mm
01:45 AM 47.1°F8.4°C 46.6°F8.1°C 98% Calm Calm -- 30.07 in1018.3 mb 0.00 in0.0 mm 0.00 in/hr0.0 mm/hr 0.09 in2.3 mm
01:40 AM 47.7°F8.7°C 47.1°F8.4°C 98% 1.0 mph NW1.6 kmh NW 1.0 mph1.6 kmh 30.07 in1018.3 mb 0.00 in0.0 mm 0.00 in/hr0.0 mm/hr 0.09 in2.3 mm
01:35 AM 48.0°F8.9°C 47.8°F8.8°C 99% 1.0 mph WNW1.6 kmh WNW 3.0 mph4.8 kmh 30.07 in1018.3 mb 0.00 in0.0 mm 0.00 in/hr0.0 mm/hr 0.09 in2.3 mm
01:30 AM 48.4°F9.1°C 48.1°F8.9°C 99% Calm Calm 3.0 mph4.8 kmh 30.07 in1018.3 mb 0.00 in0.0 mm 0.00 in/hr0.0 mm/hr 0.09 in2.3 mm
01:25 AM 47.8°F8.8°C 47.6°F8.7°C 99% Calm Calm 2.0 mph3.2 kmh 30.07 in1018.3 mb 0.00 in0.0 mm 0.00 in/hr0.0 mm/hr 0.09 in2.3 mm
01:20 AM 47.7°F8.7°C 47.1°F8.4°C 98% Calm Calm 1.0 mph1.6 kmh 30.07 in1018.3 mb 0.00 in0.0 mm 0.00 in/hr0.0 mm/hr 0.09 in2.3 mm
01:15 AM 48.0°F8.9°C 47.5°F8.6°C 98% Calm Calm 1.0 mph1.6 kmh 30.07 in1018.3 mb 0.00 in0.0 mm 0.00 in/hr0.0 mm/hr 0.09 in2.3 mm
01:10 AM 48.2°F9.0°C 47.7°F8.7°C 98% Calm Calm 1.0 mph1.6 kmh 30.07 in1018.3 mb 0.00 in0.0 mm 0.00 in/hr0.0 mm/hr 0.09 in2.3 mm
01:05 AM 48.4°F9.1°C 48.1°F8.9°C 99% Calm Calm 1.0 mph1.6 kmh 30.07 in1018.3 mb 0.00 in0.0 mm 0.00 in/hr0.0 mm/hr 0.09 in2.3 mm
01:00 AM 48.6°F9.2°C 48.3°F9.1°C 99% Calm Calm -- 30.07 in1018.3 mb 0.00 in0.0 mm 0.00 in/hr0.0 mm/hr 0.09 in2.3 mm
12:55 AM 48.7°F9.3°C 48.2°F9.0°C 98% Calm Calm -- 30.07 in1018.3 mb 0.00 in0.0 mm 0.00 in/hr0.0 mm/hr 0.09 in2.3 mm
12:50 AM 48.9°F9.4°C 48.4°F9.1°C 98% Calm Calm 1.0 mph1.6 kmh 30.07 in1018.3 mb 0.00 in0.0 mm 0.00 in/hr0.0 mm/hr 0.09 in2.3 mm
12:45 AM 49.3°F9.6°C 48.7°F9.3°C 98% Calm Calm 1.0 mph1.6 kmh 30.07 in1018.3 mb 0.00 in0.0 mm 0.00 in/hr0.0 mm/hr 0.09 in2.3 mm
12:40 AM 49.5°F9.7°C 49.2°F9.6°C 99% Calm Calm -- 30.07 in1018.3 mb 0.01 in0.3 mm 0.00 in/hr0.0 mm/hr 0.09 in2.3 mm
12:35 AM 49.5°F9.7°C 48.9°F9.4°C 98% Calm Calm -- 30.07 in1018.3 mb 0.02 in0.5 mm 0.00 in/hr0.0 mm/hr 0.09 in2.3 mm
12:30 AM 49.6°F9.8°C 49.1°F9.5°C 98% Calm Calm -- 30.07 in1018.3 mb 0.03 in0.8 mm 0.00 in/hr0.0 mm/hr 0.09 in2.3 mm
12:25 AM 49.6°F9.8°C 49.1°F9.5°C 98% 1.0 mph WSW1.6 kmh WSW 2.0 mph3.2 kmh 30.07 in1018.3 mb 0.04 in1.0 mm 0.00 in/hr0.0 mm/hr 0.09 in2.3 mm
12:20 AM 49.6°F9.8°C 49.1°F9.5°C 98% Calm Calm 2.0 mph3.2 kmh 30.07 in1018.3 mb 0.06 in1.5 mm 0.00 in/hr0.0 mm/hr 0.09 in2.3 mm
12:15 AM 49.6°F9.8°C 49.1°F9.5°C 98% Calm Calm 1.0 mph1.6 kmh 30.07 in1018.3 mb 0.07 in1.8 mm 0.00 in/hr0.0 mm/hr 0.09 in2.3 mm
12:10 AM 49.8°F9.9°C 49.3°F9.6°C 98% Calm Calm 1.0 mph1.6 kmh 30.07 in1018.3 mb 0.08 in2.0 mm 0.00 in/hr0.0 mm/hr 0.09 in2.3 mm
12:05 AM 49.6°F9.8°C 49.1°F9.5°C 98% 1.0 mph WSW1.6 kmh WSW 2.0 mph3.2 kmh 30.07 in1018.3 mb 0.09 in2.3 mm 0.00 in/hr0.0 mm/hr 0.09 in2.3 mm
12:00 AM 49.6°F9.8°C 49.1°F9.5°C 98% 1.0 mph SW1.6 kmh SW 2.0 mph3.2 kmh 30.07 in1018.3 mb 0.09 in2.3 mm 0.00 in/hr0.0 mm/hr 0.09 in2.3 mm